Time;durP1;ratioP1;P1;durP2;ratioP2;P2;SDS_P1;SDS_P2;PMS_P1;PMS_P2;Temp;Humidity;BMP_temperature;BMP_pressure;BME280_temperature;BME280_humidity;BME280_pressure;Samples;Min_cycle;Max_cycle;Signal;HPM_P1;HPM_P2
2021/06/05 00:00:31;;;;;;;0.43;0.20;;;;;;;18.04;100.00;100558.72;5003916;28;20936;-52
2021/06/05 00:02:59;;;;;;;0.40;0.20;;;;;;;18.03;100.00;100554.28;5007665;28;20830;-51
2021/06/05 00:05:28;;;;;;;0.40;0.30;;;;;;;18.20;100.00;100556.91;5003106;28;21040;-51
2021/06/05 00:07:55;;;;;;;0.50;0.30;;;;;;;18.57;100.00;100550.31;5005653;28;20472;-52
2021/06/05 00:10:34;;;;;;;0.50;0.37;;;;;;;18.32;100.00;100544.59;5002337;28;20457;-51
2021/06/05 00:13:01;;;;;;;0.40;0.20;;;;;;;18.16;100.00;100557.19;4998847;28;20469;-52
2021/06/05 00:15:33;;;;;;;0.40;0.20;;;;;;;17.93;100.00;100558.44;5001094;28;20449;-51
2021/06/05 00:17:59;;;;;;;0.40;0.20;;;;;;;17.97;100.00;100544.75;5005796;28;20544;-51
2021/06/05 00:20:29;;;;;;;1.67;0.93;;;;;;;18.00;100.00;100544.56;5004598;28;20457;-51
2021/06/05 00:23:01;;;;;;;0.40;0.20;;;;;;;17.83;100.00;100554.53;4998914;28;20472;-51
2021/06/05 00:25:29;;;;;;;0.40;0.20;;;;;;;17.88;100.00;100566.75;5001814;28;20782;-52
2021/06/05 00:27:56;;;;;;;0.50;0.40;;;;;;;17.96;100.00;100558.28;5001975;28;20456;-52
2021/06/05 00:30:24;;;;;;;0.40;0.20;;;;;;;17.98;100.00;100559.94;5022175;28;20863;-52
2021/06/05 00:32:51;;;;;;;0.40;0.20;;;;;;;17.99;100.00;100553.59;4999607;28;20519;-51
2021/06/05 00:35:18;;;;;;;0.40;0.20;;;;;;;17.82;100.00;100556.34;5002259;28;20553;-51
2021/06/05 00:37:45;;;;;;;0.40;0.20;;;;;;;17.86;100.00;100554.34;5008769;28;20457;-52
2021/06/05 00:40:13;;;;;;;0.50;0.50;;;;;;;17.77;100.00;100563.78;5001910;28;20457;-52
2021/06/05 00:42:40;;;;;;;0.40;0.20;;;;;;;17.66;100.00;100555.38;5005394;28;20473;-51
2021/06/05 00:45:08;;;;;;;0.40;0.20;;;;;;;17.87;100.00;100543.50;5002384;28;20453;-51
2021/06/05 00:47:35;;;;;;;0.40;0.20;;;;;;;17.78;100.00;100549.38;4998578;28;20496;-51
2021/06/05 00:50:05;;;;;;;1.50;1.40;;;;;;;17.60;100.00;100555.72;5001163;28;20457;-51
2021/06/05 00:52:32;;;;;;;0.40;0.20;;;;;;;17.83;100.00;100551.84;5004863;28;21022;-52
2021/06/05 00:55:00;;;;;;;0.90;0.90;;;;;;;17.69;100.00;100553.44;5003807;28;20444;-51
2021/06/05 00:57:27;;;;;;;0.40;0.20;;;;;;;17.57;100.00;100550.53;4998400;28;20453;-51
2021/06/05 00:59:53;;;;;;;0.40;0.20;;;;;;;17.65;100.00;100553.66;4999531;28;20473;-52
2021/06/05 01:02:20;;;;;;;0.40;0.20;;;;;;;17.47;100.00;100550.13;5009981;28;20495;-51
2021/06/05 01:04:46;;;;;;;0.40;0.20;;;;;;;17.55;100.00;100539.84;4999343;28;20457;-51
2021/06/05 01:07:20;;;;;;;0.40;0.20;;;;;;;17.39;100.00;100544.28;5005368;28;20496;-51
2021/06/05 01:09:58;;;;;;;0.40;0.20;;;;;;;17.48;100.00;100541.09;5005250;28;20449;-52
2021/06/05 01:12:39;;;;;;;0.40;0.20;;;;;;;17.58;100.00;100541.50;5000147;28;20960;-51
2021/06/05 01:15:12;;;;;;;0.40;0.20;;;;;;;17.49;100.00;100540.16;4998012;28;20532;-52
2021/06/05 01:17:47;;;;;;;2.77;1.47;;;;;;;17.43;100.00;100530.63;5001222;28;20445;-51
2021/06/05 01:20:42;;;;;;;0.40;0.20;;;;;;;17.30;100.00;100532.22;5005458;28;20449;-52
2021/06/05 01:23:28;;;;;;;0.40;0.20;;;;;;;17.32;100.00;100522.25;5009047;28;20469;-51
2021/06/05 01:26:13;;;;;;;0.40;0.20;;;;;;;17.29;100.00;100522.41;5008046;28;20561;-52
2021/06/05 01:28:58;;;;;;;0.40;0.20;;;;;;;17.28;100.00;100519.81;5010392;28;20517;-52
2021/06/05 01:31:33;;;;;;;1.60;1.60;;;;;;;17.17;100.00;100515.84;5015467;28;20449;-51
2021/06/05 01:34:01;;;;;;;0.77;0.77;;;;;;;17.14;100.00;100516.03;5006590;28;20488;-51
2021/06/05 01:36:28;;;;;;;0.40;0.20;;;;;;;17.07;100.00;100519.09;5003142;28;20572;-51
2021/06/05 01:39:00;;;;;;;0.40;0.20;;;;;;;17.10;100.00;100518.94;5003973;28;20453;-51
2021/06/05 01:41:31;;;;;;;0.40;0.20;;;;;;;17.05;100.00;100521.00;5008506;28;20566;-52
2021/06/05 01:43:59;;;;;;;0.40;0.20;;;;;;;17.10;100.00;100519.78;5008198;28;20984;-51
2021/06/05 01:46:30;;;;;;;0.40;0.20;;;;;;;17.11;100.00;100528.72;5001864;28;20608;-51
2021/06/05 01:48:57;;;;;;;0.40;0.20;;;;;;;16.86;100.00;100521.94;5002102;28;20504;-51
2021/06/05 01:51:24;;;;;;;0.40;0.20;;;;;;;17.09;100.00;100533.31;5007518;28;20481;-51
2021/06/05 01:53:55;;;;;;;0.40;0.20;;;;;;;17.04;100.00;100532.69;5008359;28;20476;-51
2021/06/05 01:56:47;;;;;;;0.40;0.20;;;;;;;16.96;100.00;100532.19;4997559;28;20954;-51
2021/06/05 01:59:15;;;;;;;0.40;0.20;;;;;;;17.07;100.00;100535.22;5008150;28;20485;-51
2021/06/05 02:01:43;;;;;;;0.40;0.20;;;;;;;17.15;100.00;100524.94;5007313;28;20495;-51
2021/06/05 02:04:13;;;;;;;0.50;0.30;;;;;;;17.03;100.00;100526.44;5002110;28;20476;-52
2021/06/05 02:06:45;;;;;;;0.40;0.20;;;;;;;16.95;100.00;100525.97;5002226;28;20489;-51
2021/06/05 02:09:14;;;;;;;0.40;0.20;;;;;;;16.98;100.00;100525.78;5008589;28;20480;-51
2021/06/05 02:11:46;;;;;;;0.40;0.20;;;;;;;17.10;100.00;100525.16;5008228;28;20521;-52
2021/06/05 02:14:18;;;;;;;0.40;0.30;;;;;;;17.15;100.00;100524.94;5002327;28;21040;-52
2021/06/05 02:16:49;;;;;;;0.40;0.20;;;;;;;16.86;100.00;100531.81;5001430;28;20950;-51
2021/06/05 02:19:26;;;;;;;0.40;0.20;;;;;;;16.91;100.00;100528.91;5005817;28;20491;-52
2021/06/05 02:21:57;;;;;;;0.40;0.30;;;;;;;16.92;100.00;100522.56;5008043;28;20445;-51
2021/06/05 02:24:29;;;;;;;0.40;0.20;;;;;;;16.87;100.00;100531.75;5006107;28;20452;-51
2021/06/05 02:26:58;;;;;;;0.40;0.20;;;;;;;16.90;100.00;100524.47;5004241;28;20500;-51
2021/06/05 02:29:28;;;;;;;0.40;0.20;;;;;;;16.88;100.00;100525.41;5021006;28;20451;-51
2021/06/05 02:31:56;;;;;;;0.40;0.20;;;;;;;16.70;100.00;100526.31;5005905;28;20446;-51
2021/06/05 02:34:28;;;;;;;0.40;0.20;;;;;;;16.65;100.00;100522.97;5007699;28;20862;-51
2021/06/05 02:36:59;;;;;;;0.40;0.20;;;;;;;16.83;100.00;100522.09;5004173;28;20525;-51
2021/06/05 02:39:26;;;;;;;0.40;0.20;;;;;;;16.76;100.00;100526.03;5001095;28;20449;-51
2021/06/05 02:41:54;;;;;;;0.40;0.20;;;;;;;16.54;100.00;100525.31;5004725;28;20915;-51
2021/06/05 02:44:24;;;;;;;0.50;0.50;;;;;;;16.70;100.00;100529.00;5007513;28;20462;-51
2021/06/05 02:46:52;;;;;;;0.40;0.20;;;;;;;16.64;100.00;100520.38;5004852;28;20488;-51
2021/06/05 02:49:19;;;;;;;0.40;0.20;;;;;;;16.63;100.00;100532.94;5001455;28;20942;-51
2021/06/05 02:51:55;;;;;;;0.40;0.20;;;;;;;16.80;100.00;100526.75;5003759;28;20453;-51
2021/06/05 02:54:24;;;;;;;0.40;0.20;;;;;;;16.54;100.00;100530.69;5007215;28;20456;-52
2021/06/05 02:56:52;;;;;;;0.40;0.20;;;;;;;16.51;100.00;100537.09;4996825;28;20446;-51
2021/06/05 02:59:20;;;;;;;0.50;0.30;;;;;;;16.78;100.00;100539.38;5006987;28;20503;-52
2021/06/05 03:01:46;;;;;;;0.40;0.20;;;;;;;16.56;100.00;100540.41;5006222;28;21012;-51
2021/06/05 03:04:13;;;;;;;0.40;0.20;;;;;;;16.55;100.00;100548.53;5000172;28;20495;-51
2021/06/05 03:06:41;;;;;;;0.40;0.20;;;;;;;16.38;100.00;100548.50;5001183;28;20497;-51
2021/06/05 03:09:09;;;;;;;0.40;0.30;;;;;;;16.57;100.00;100558.25;5006976;28;20841;-51
2021/06/05 03:11:36;;;;;;;0.40;0.20;;;;;;;16.49;100.00;100551.53;5006954;28;20465;-51
2021/06/05 03:14:03;;;;;;;0.40;0.30;;;;;;;16.45;100.00;100558.00;4993862;28;20532;-51
2021/06/05 03:16:29;;;;;;;0.40;0.20;;;;;;;16.55;100.00;100557.44;5006907;28;20448;-51
2021/06/05 03:18:56;;;;;;;0.40;0.20;;;;;;;16.83;100.00;100558.81;5000163;28;20448;-51
2021/06/05 03:21:23;;;;;;;0.40;0.20;;;;;;;16.57;100.00;100560.94;5000343;28;20449;-51
2021/06/05 03:23:51;;;;;;;0.40;0.20;;;;;;;16.94;100.00;100560.97;5000093;28;20469;-51
2021/06/05 03:26:18;;;;;;;0.40;0.20;;;;;;;16.85;100.00;100556.91;5009536;28;20558;-51
2021/06/05 03:28:46;;;;;;;0.40;0.20;;;;;;;17.23;100.00;100543.34;5009394;28;20940;-52
2021/06/05 03:31:18;;;;;;;0.40;0.20;;;;;;;17.32;100.00;100554.50;5016703;28;20529;-51
2021/06/05 03:33:47;;;;;;;0.40;0.30;;;;;;;17.04;100.00;100556.88;5003182;28;20548;-51
2021/06/05 03:36:14;;;;;;;0.40;0.20;;;;;;;16.87;100.00;100555.03;5001714;28;20484;-52
2021/06/05 03:38:42;;;;;;;0.40;0.20;;;;;;;16.84;100.00;100550.66;5003745;28;20958;-51
2021/06/05 03:41:10;;;;;;;0.40;0.20;;;;;;;16.80;100.00;100553.59;5006302;28;20457;-52
2021/06/05 03:43:38;;;;;;;0.40;0.20;;;;;;;16.88;100.00;100552.28;5003183;28;20824;-52
2021/06/05 03:46:04;;;;;;;0.40;0.20;;;;;;;16.82;100.00;100555.25;4999383;28;20456;-52
2021/06/05 03:48:32;;;;;;;0.40;0.20;;;;;;;16.84;100.00;100556.03;5002541;28;20461;-51
2021/06/05 03:50:58;;;;;;;0.40;0.20;;;;;;;16.74;100.00;100560.16;5006373;28;20453;-51
2021/06/05 03:53:26;;;;;;;0.40;0.20;;;;;;;16.85;100.00;100552.41;5003915;28;20519;-51
2021/06/05 03:55:53;;;;;;;0.40;0.20;;;;;;;16.92;100.00;100554.78;4997972;28;20454;-51
2021/06/05 03:58:39;;;;;;;0.40;0.20;;;;;;;17.06;100.00;100544.22;5003931;28;20464;-52
2021/06/05 04:01:09;;;;;;;1.93;1.87;;;;;;;17.13;100.00;100562.66;5012445;28;20452;-52
2021/06/05 04:03:37;;;;;;;0.90;0.90;;;;;;;17.12;100.00;100555.50;4999577;28;20489;-51
2021/06/05 04:06:04;;;;;;;0.40;0.20;;;;;;;17.53;100.00;100559.66;5004874;28;20449;-51
2021/06/05 04:08:32;;;;;;;0.40;0.20;;;;;;;17.25;100.00;100566.50;5005747;28;20989;-51
2021/06/05 04:10:58;;;;;;;0.40;0.20;;;;;;;17.29;100.00;100557.34;5000816;28;20988;-51
2021/06/05 04:13:25;;;;;;;0.40;0.20;;;;;;;17.36;100.00;100555.19;4998937;28;20469;-51
2021/06/05 04:15:52;;;;;;;0.40;0.20;;;;;;;17.29;100.00;100561.84;5004017;28;20458;-51
2021/06/05 04:18:25;;;;;;;0.40;0.20;;;;;;;17.27;100.00;100558.34;5005971;28;20556;-52
2021/06/05 04:20:52;;;;;;;3.17;1.80;;;;;;;17.10;100.00;100548.47;5003122;28;20456;-51
2021/06/05 04:23:19;;;;;;;0.40;0.20;;;;;;;17.27;100.00;100550.28;4998887;28;20472;-51
2021/06/05 04:25:46;;;;;;;0.40;0.20;;;;;;;17.28;100.00;100549.38;5007780;28;20870;-51
2021/06/05 04:28:15;;;;;;;0.40;0.20;;;;;;;17.29;100.00;100551.97;4998798;28;21037;-51
2021/06/05 04:30:43;;;;;;;0.40;0.20;;;;;;;17.37;100.00;100544.34;5001551;28;20449;-52
2021/06/05 04:33:14;;;;;;;0.40;0.20;;;;;;;17.93;100.00;100543.16;5005350;28;20509;-52
2021/06/05 04:35:41;;;;;;;0.40;0.20;;;;;;;17.28;100.00;100542.16;5002918;28;20444;-52
2021/06/05 04:38:08;;;;;;;0.40;0.20;;;;;;;17.14;100.00;100547.41;5006505;28;20607;-51
2021/06/05 04:40:36;;;;;;;0.40;0.20;;;;;;;17.01;100.00;100541.78;5004178;28;20457;-51
2021/06/05 04:43:04;;;;;;;0.40;0.20;;;;;;;17.09;100.00;100563.72;4998830;28;20477;-51
2021/06/05 04:45:31;;;;;;;0.40;0.20;;;;;;;17.03;100.00;100558.69;4999352;28;20495;-51
2021/06/05 04:47:59;;;;;;;0.40;0.20;;;;;;;17.25;100.00;100547.69;5005453;28;20489;-51
2021/06/05 04:50:31;;;;;;;0.40;0.20;;;;;;;17.23;100.00;100565.72;5004949;28;20444;-51
2021/06/05 04:52:58;;;;;;;0.40;0.23;;;;;;;17.24;100.00;100555.81;4999409;28;20536;-51
2021/06/05 04:55:25;;;;;;;0.40;0.20;;;;;;;17.30;100.00;100558.22;4999062;28;20476;-51
2021/06/05 04:57:55;;;;;;;0.40;0.20;;;;;;;17.28;100.00;100560.13;5000218;28;20448;-51
2021/06/05 05:00:30;;;;;;;0.60;0.53;;;;;;;17.08;100.00;100553.06;4998603;28;20454;-51
2021/06/05 05:02:58;;;;;;;0.40;0.20;;;;;;;17.08;100.00;100548.56;5002976;28;20476;-51
2021/06/05 05:05:26;;;;;;;0.40;0.20;;;;;;;17.08;100.00;100543.19;5007058;28;21030;-51
2021/06/05 05:07:53;;;;;;;0.40;0.20;;;;;;;17.26;100.00;100546.72;5008759;28;20558;-51
2021/06/05 05:10:24;;;;;;;0.40;0.20;;;;;;;17.14;100.00;100552.78;4998491;28;20511;-51
2021/06/05 05:12:51;;;;;;;0.40;0.30;;;;;;;17.17;100.00;100561.53;5001964;28;20842;-51
2021/06/05 05:15:18;;;;;;;0.40;0.20;;;;;;;17.23;100.00;100559.47;5005145;28;20453;-51
2021/06/05 05:17:45;;;;;;;0.40;0.20;;;;;;;17.19;100.00;100556.06;5001549;28;20502;-52
2021/06/05 05:20:14;;;;;;;0.40;0.20;;;;;;;17.25;100.00;100560.25;4998219;28;20481;-51
2021/06/05 05:22:41;;;;;;;0.40;0.20;;;;;;;17.39;100.00;100555.88;5001228;28;20505;-52
2021/06/05 05:25:10;;;;;;;0.40;0.20;;;;;;;17.48;100.00;100563.47;5005317;28;20488;-51
2021/06/05 05:27:37;;;;;;;1.53;1.43;;;;;;;17.42;100.00;100568.31;5000902;28;21086;-51
2021/06/05 05:30:15;;;;;;;0.40;0.20;;;;;;;17.47;100.00;100568.94;5023275;28;20559;-52
2021/06/05 05:32:42;;;;;;;0.50;0.40;;;;;;;17.70;100.00;100557.88;4997895;28;20998;-51
2021/06/05 05:35:09;;;;;;;0.40;0.30;;;;;;;17.58;100.00;100561.19;5004333;28;20463;-52
2021/06/05 05:37:36;;;;;;;0.40;0.30;;;;;;;17.52;100.00;100568.69;5005962;28;20457;-52
2021/06/05 05:40:05;;;;;;;0.67;0.67;;;;;;;17.61;100.00;100569.09;4998794;28;20460;-52
2021/06/05 05:42:32;;;;;;;0.40;0.20;;;;;;;17.69;100.00;100576.78;4998037;28;20478;-51
2021/06/05 05:44:58;;;;;;;0.40;0.20;;;;;;;17.57;100.00;100570.19;5003586;28;20544;-52
2021/06/05 05:47:25;;;;;;;0.93;0.87;;;;;;;17.92;100.00;100567.47;5004558;28;20492;-51
2021/06/05 05:49:52;;;;;;;1.53;1.43;;;;;;;18.19;100.00;100565.94;5000095;28;20459;-52
2021/06/05 05:52:19;;;;;;;0.40;0.20;;;;;;;18.50;100.00;100559.72;4998532;28;20474;-51
2021/06/05 05:54:45;;;;;;;1.67;1.67;;;;;;;17.98;100.00;100570.69;5003241;28;21060;-51
2021/06/05 05:57:12;;;;;;;0.40;0.20;;;;;;;17.72;100.00;100576.63;4995695;28;20449;-52
2021/06/05 05:59:39;;;;;;;0.40;0.20;;;;;;;17.57;100.00;100574.72;5003059;28;20476;-52
2021/06/05 06:02:06;;;;;;;0.40;0.20;;;;;;;17.70;100.00;100578.53;5004456;28;20452;-51
2021/06/05 06:04:33;;;;;;;0.40;0.20;;;;;;;18.06;100.00;100587.25;5000081;28;20453;-52
2021/06/05 06:07:00;;;;;;;0.40;0.30;;;;;;;18.23;100.00;100593.56;4999461;28;20840;-52
2021/06/05 06:09:26;;;;;;;0.60;0.60;;;;;;;17.96;100.00;100585.19;5005869;28;20503;-52
2021/06/05 06:11:53;;;;;;;0.40;0.20;;;;;;;17.91;100.00;100582.72;5007815;28;20894;-52
2021/06/05 06:14:20;;;;;;;0.50;0.20;;;;;;;18.17;100.00;100591.19;5003847;28;20455;-52
2021/06/05 06:16:48;;;;;;;0.43;0.27;;;;;;;17.94;100.00;100592.44;5001700;28;20461;-52
2021/06/05 06:19:15;;;;;;;0.50;0.20;;;;;;;18.46;100.00;100589.56;5005302;28;20548;-52
2021/06/05 06:21:43;;;;;;;0.40;0.20;;;;;;;18.16;100.00;100590.34;5023201;28;20520;-52
2021/06/05 06:24:11;;;;;;;0.47;0.30;;;;;;;18.64;100.00;100599.34;5004798;28;20464;-52
2021/06/05 06:26:39;;;;;;;8.47;2.43;;;;;;;18.50;100.00;100593.81;5006443;28;20476;-52
2021/06/05 06:29:12;;;;;;;1.23;1.13;;;;;;;18.59;100.00;100593.31;5016165;28;20513;-52
2021/06/05 06:31:43;;;;;;;0.40;0.20;;;;;;;19.27;100.00;100598.38;5010063;28;20820;-52
2021/06/05 06:34:09;;;;;;;0.40;0.40;;;;;;;19.08;100.00;100598.59;5007017;28;20469;-52
2021/06/05 06:36:39;;;;;;;0.57;0.43;;;;;;;19.17;100.00;100596.22;5003121;28;20488;-52
2021/06/05 06:39:06;;;;;;;1.90;1.07;;;;;;;18.79;100.00;100600.31;5001757;28;20449;-52
2021/06/05 06:41:32;;;;;;;0.40;0.20;;;;;;;19.20;100.00;100593.34;5007700;28;20507;-52
2021/06/05 06:44:02;;;;;;;0.40;0.20;;;;;;;19.46;100.00;100597.19;5007102;28;21055;-52
2021/06/05 06:46:32;;;;;;;0.40;0.20;;;;;;;19.29;100.00;100589.22;5001078;28;20507;-54
2021/06/05 06:49:00;;;;;;;0.40;0.20;;;;;;;19.62;100.00;100588.19;5000997;28;20579;-52
2021/06/05 06:51:29;;;;;;;0.40;0.20;;;;;;;19.21;100.00;100587.00;5006899;28;20950;-52
2021/06/05 06:53:55;;;;;;;0.40;0.20;;;;;;;19.11;100.00;100588.50;5005957;28;20484;-52
2021/06/05 06:56:23;;;;;;;0.40;0.20;;;;;;;19.45;100.00;100587.34;4997452;28;20460;-52
2021/06/05 06:58:50;;;;;;;0.40;0.30;;;;;;;19.46;100.00;100596.28;5007899;28;20476;-52
2021/06/05 07:01:18;;;;;;;0.40;0.20;;;;;;;19.56;100.00;100593.94;5002225;28;20861;-52
2021/06/05 07:03:45;;;;;;;0.40;0.20;;;;;;;19.84;100.00;100593.97;5000626;28;20477;-52
2021/06/05 07:06:14;;;;;;;0.40;0.30;;;;;;;19.98;100.00;100598.53;5005452;28;20454;-52
2021/06/05 07:08:42;;;;;;;0.50;0.30;;;;;;;19.91;100.00;100600.75;5007626;28;20492;-52
2021/06/05 07:11:13;;;;;;;0.40;0.20;;;;;;;20.13;100.00;100602.94;5004265;28;20870;-52
2021/06/05 07:13:40;;;;;;;0.40;0.20;;;;;;;20.11;100.00;100602.19;5001585;28;20884;-52
2021/06/05 07:16:07;;;;;;;0.50;0.30;;;;;;;19.83;100.00;100597.66;5004479;28;20457;-52
2021/06/05 07:18:36;;;;;;;0.40;0.30;;;;;;;20.11;100.00;100600.34;5007223;28;20445;-52
2021/06/05 07:21:06;;;;;;;0.40;0.20;;;;;;;20.38;100.00;100607.66;5005378;28;20854;-52
2021/06/05 07:23:34;;;;;;;0.50;0.30;;;;;;;20.94;100.00;100603.97;5001137;28;20472;-52
2021/06/05 07:26:06;;;;;;;0.73;0.60;;;;;;;21.48;100.00;100597.69;5010454;28;20484;-52
2021/06/05 07:28:35;;;;;;;0.40;0.20;;;;;;;21.21;100.00;100601.25;5007873;28;20515;-52
2021/06/05 07:31:04;;;;;;;0.50;0.40;;;;;;;21.76;100.00;100600.19;5020575;28;20461;-53
2021/06/05 07:33:32;;;;;;;0.47;0.20;;;;;;;22.51;99.88;100604.81;5007361;28;20501;-53
2021/06/05 07:35:59;;;;;;;0.73;0.73;;;;;;;21.73;99.23;100594.13;5008056;28;20850;-53
2021/06/05 07:38:28;;;;;;;0.40;0.20;;;;;;;22.08;99.33;100581.72;5005517;28;20445;-52
2021/06/05 07:40:56;;;;;;;0.50;0.40;;;;;;;22.21;98.49;100597.09;5007411;28;20453;-53
2021/06/05 07:43:26;;;;;;;0.40;0.20;;;;;;;21.93;96.99;100588.19;5002313;28;20932;-53
2021/06/05 07:45:54;;;;;;;0.40;0.30;;;;;;;21.80;97.27;100576.50;5000510;28;20902;-53
2021/06/05 07:48:23;;;;;;;0.47;0.30;;;;;;;22.20;97.76;100584.50;5005016;28;20489;-53
2021/06/05 07:50:50;;;;;;;0.40;0.20;;;;;;;21.86;98.29;100586.88;5007365;28;20456;-53
2021/06/05 07:53:16;;;;;;;0.47;0.27;;;;;;;22.00;98.72;100600.31;5003279;28;20496;-53
2021/06/05 07:55:44;;;;;;;1.30;1.30;;;;;;;22.46;96.65;100597.88;4999865;28;20834;-53
2021/06/05 07:58:12;;;;;;;0.50;0.30;;;;;;;22.26;96.46;100595.78;5003672;28;20946;-53
2021/06/05 08:00:39;;;;;;;0.60;0.50;;;;;;;22.65;95.24;100597.41;5000462;28;20487;-52
2021/06/05 08:03:08;;;;;;;0.40;0.20;;;;;;;22.07;96.19;100589.97;5003022;28;20959;-53
2021/06/05 08:05:37;;;;;;;0.47;0.20;;;;;;;22.31;95.53;100593.56;5006726;28;20801;-52
2021/06/05 08:08:05;;;;;;;0.40;0.30;;;;;;;22.50;96.80;100594.97;5004814;28;21079;-52
2021/06/05 08:10:32;;;;;;;0.50;0.30;;;;;;;22.39;96.37;100591.19;4999957;28;20991;-52
2021/06/05 08:12:59;;;;;;;0.50;0.30;;;;;;;22.44;94.21;100601.69;5001785;28;20492;-52
2021/06/05 08:15:29;;;;;;;2.20;2.00;;;;;;;22.42;95.23;100590.09;5006496;28;20488;-53
2021/06/05 08:17:56;;;;;;;0.40;0.20;;;;;;;22.40;95.55;100592.91;5005959;28;20448;-52
2021/06/05 08:20:29;;;;;;;0.40;0.30;;;;;;;22.56;95.38;100597.22;4999985;28;20823;-52
2021/06/05 08:22:57;;;;;;;0.50;0.20;;;;;;;22.75;94.73;100595.75;5000122;28;20494;-52
2021/06/05 08:25:25;;;;;;;0.50;0.40;;;;;;;23.16;93.50;100589.06;4999800;28;20487;-53
2021/06/05 08:27:52;;;;;;;0.60;0.57;;;;;;;23.45;92.50;100594.13;5000338;28;20540;-52
2021/06/05 08:30:24;;;;;;;0.50;0.30;;;;;;;23.31;93.13;100601.50;5024784;28;20467;-52
2021/06/05 08:32:51;;;;;;;0.60;0.60;;;;;;;23.48;90.14;100602.03;4999238;28;20465;-52
2021/06/05 08:35:18;;;;;;;0.50;0.20;;;;;;;23.52;92.58;100604.38;5003990;28;20961;-53
2021/06/05 08:37:45;;;;;;;0.50;0.20;;;;;;;23.79;92.14;100611.38;5007033;28;20453;-53
2021/06/05 08:40:14;;;;;;;0.60;0.60;;;;;;;23.33;91.36;100601.38;5016473;28;20478;-53
2021/06/05 08:42:48;;;;;;;0.50;0.20;;;;;;;23.01;94.03;100603.78;4999194;28;20481;-53
2021/06/05 08:45:20;;;;;;;0.50;0.30;;;;;;;23.27;92.31;100599.97;5002666;28;20468;-52
2021/06/05 08:47:46;;;;;;;0.93;0.93;;;;;;;23.44;95.23;100597.84;5006000;28;20489;-53
2021/06/05 08:50:23;;;;;;;0.40;0.20;;;;;;;23.60;93.01;100604.69;5003056;28;20452;-52
2021/06/05 08:53:14;;;;;;;0.50;0.20;;;;;;;23.91;89.54;100600.44;4998304;28;20630;-53
2021/06/05 08:55:45;;;;;;;0.50;0.30;;;;;;;23.78;91.31;100596.09;4998840;28;20458;-52
2021/06/05 08:58:30;;;;;;;0.50;0.30;;;;;;;23.96;89.18;100604.63;5002184;28;20515;-52
2021/06/05 09:01:08;;;;;;;0.50;0.30;;;;;;;24.00;91.09;100596.13;4998946;28;20452;-53
2021/06/05 09:03:38;;;;;;;0.60;0.60;;;;;;;23.80;89.70;100603.13;4998974;28;20836;-53
2021/06/05 09:06:22;;;;;;;0.60;0.60;;;;;;;24.30;90.24;100595.53;5004589;28;20507;-53
2021/06/05 09:08:49;;;;;;;0.50;0.30;;;;;;;24.11;88.91;100596.09;5021125;28;20555;-53
2021/06/05 09:11:17;;;;;;;0.50;0.30;;;;;;;23.63;89.92;100588.16;5002320;28;20448;-53
2021/06/05 09:13:45;;;;;;;0.50;0.30;;;;;;;23.25;89.61;100593.81;4998075;28;21017;-52
2021/06/05 09:16:18;;;;;;;0.50;0.30;;;;;;;23.54;90.37;100596.13;5001165;28;20857;-52
2021/06/05 09:19:23;;;;;;;0.50;0.30;;;;;;;23.43;90.21;100594.22;5005150;28;20446;-53
2021/06/05 09:21:58;;;;;;;0.50;0.30;;;;;;;23.69;89.60;100603.09;5004872;28;20567;-52
2021/06/05 09:24:37;;;;;;;0.50;0.37;;;;;;;23.81;88.88;100596.69;5003560;28;20452;-52
2021/06/05 09:27:18;;;;;;;1.07;1.07;;;;;;;23.88;87.84;100597.97;5004914;28;20449;-53
2021/06/05 09:29:50;;;;;;;0.50;0.27;;;;;;;23.86;90.54;100594.50;5020828;28;20835;-52
2021/06/05 09:32:22;;;;;;;0.50;0.30;;;;;;;24.09;89.36;100608.94;5001851;28;20476;-52
2021/06/05 09:35:04;;;;;;;0.57;0.43;;;;;;;23.91;90.07;100605.84;5005015;28;20535;-52
2021/06/05 09:37:40;;;;;;;0.60;0.60;;;;;;;24.11;88.76;100604.25;5005964;28;20499;-53
2021/06/05 09:40:18;;;;;;;0.43;0.20;;;;;;;23.60;88.58;100614.69;4999641;28;21008;-52
2021/06/05 09:43:08;;;;;;;1.33;1.33;;;;;;;23.85;90.50;100600.94;5000586;28;20513;-52
2021/06/05 09:45:41;;;;;;;0.40;0.20;;;;;;;23.67;91.66;100605.06;5015237;28;20489;-53
2021/06/05 09:48:27;;;;;;;0.47;0.30;;;;;;;23.67;89.06;100602.34;5007970;28;20528;-52
2021/06/05 09:50:57;;;;;;;0.50;0.23;;;;;;;23.55;91.34;100601.41;5007963;28;20507;-52
2021/06/05 09:53:37;;;;;;;0.60;0.60;;;;;;;23.43;90.46;100602.38;5005193;28;20476;-52
2021/06/05 09:56:23;;;;;;;1.23;0.67;;;;;;;22.88;92.87;100603.84;4996810;28;20488;-52
2021/06/05 09:59:14;;;;;;;0.50;0.30;;;;;;;23.26;93.16;100600.09;5008674;28;20442;-52
2021/06/05 10:01:44;;;;;;;0.40;0.30;;;;;;;23.25;93.65;100598.34;5006929;28;20427;-52
2021/06/05 10:04:17;;;;;;;0.50;0.30;;;;;;;23.38;90.91;100590.16;5001728;28;20487;-52
2021/06/05 10:06:53;;;;;;;0.50;0.20;;;;;;;23.22;92.55;100601.31;5001258;28;20901;-52
2021/06/05 10:09:35;;;;;;;0.50;0.30;;;;;;;23.37;93.03;100597.44;5006834;28;20564;-53
2021/06/05 10:12:02;;;;;;;0.50;0.30;;;;;;;23.49;93.48;100595.63;5008010;28;20973;-52
2021/06/05 10:14:36;;;;;;;0.50;0.20;;;;;;;23.26;93.62;100598.25;5004947;28;20562;-52
2021/06/05 10:17:09;;;;;;;0.50;0.23;;;;;;;23.46;91.84;100601.28;5001179;28;20472;-53
2021/06/05 10:19:41;;;;;;;0.67;0.67;;;;;;;23.50;90.91;100594.63;5002509;28;20420;-53
2021/06/05 10:22:08;;;;;;;0.50;0.40;;;;;;;23.80;89.61;100602.25;5008097;28;20445;-52
2021/06/05 10:25:02;;;;;;;0.50;0.20;;;;;;;23.53;89.47;100605.25;5007392;28;20453;-52
2021/06/05 10:27:33;;;;;;;0.50;0.20;;;;;;;23.50;89.80;100591.91;5004296;28;20963;-52
2021/06/05 10:30:07;;;;;;;0.80;0.57;;;;;;;23.71;91.09;100593.00;5025858;28;20488;-52
2021/06/05 10:32:43;;;;;;;0.60;0.50;;;;;;;24.08;89.59;100603.66;5001878;28;20982;-52
2021/06/05 10:35:28;;;;;;;0.50;0.23;;;;;;;24.08;88.97;100596.34;5002342;28;20542;-53
2021/06/05 10:38:36;;;;;;;0.50;0.23;;;;;;;24.20;88.34;100597.22;5010984;28;20457;-52
2021/06/05 10:41:04;;;;;;;0.50;0.30;;;;;;;24.45;86.42;100590.72;5008421;28;20480;-53
2021/06/05 10:43:31;;;;;;;0.40;0.20;;;;;;;24.33;87.72;100589.84;5003562;28;20493;-53
2021/06/05 10:45:58;;;;;;;0.40;0.20;;;;;;;24.78;84.81;100584.34;5000658;28;20450;-53
2021/06/05 10:48:30;;;;;;;0.50;0.27;;;;;;;24.41;84.80;100590.09;5004042;28;20481;-53
2021/06/05 10:51:20;;;;;;;0.47;0.27;;;;;;;24.84;85.82;100589.28;5007386;28;20520;-53
2021/06/05 10:53:56;;;;;;;1.00;1.00;;;;;;;24.88;85.05;100592.59;5007910;23;20476;-53
2021/06/05 10:56:40;;;;;;;0.50;0.20;;;;;;;25.31;85.21;100588.00;4986114;28;20504;-53
2021/06/05 10:59:39;;;;;;;0.50;0.20;;;;;;;25.24;85.16;100577.78;4988299;28;20458;-54
2021/06/05 11:02:06;;;;;;;0.50;0.30;;;;;;;24.79;85.16;100575.19;4989562;28;20750;-54
2021/06/05 11:04:33;;;;;;;0.40;0.20;;;;;;;24.88;84.51;100574.41;4974477;28;20935;-54
2021/06/05 11:07:03;;;;;;;0.50;0.30;;;;;;;24.86;86.46;100576.41;4965200;28;20955;-53
2021/06/05 11:09:30;;;;;;;0.40;0.20;;;;;;;25.07;84.76;100576.47;4974688;28;20494;-53
2021/06/05 11:12:19;;;;;;;1.23;1.23;;;;;;;25.70;82.86;100572.00;4961845;28;20454;-53
2021/06/05 11:14:47;;;;;;;0.50;0.40;;;;;;;25.45;81.40;100569.63;4970858;28;20557;-53
2021/06/05 11:17:39;;;;;;;0.50;0.23;;;;;;;25.55;81.64;100574.16;4968090;28;20430;-53
2021/06/05 11:20:06;;;;;;;0.50;0.30;;;;;;;26.04;82.06;100571.72;4971514;28;20931;-53
2021/06/05 11:22:48;;;;;;;1.07;0.97;;;;;;;25.88;80.22;100567.63;4974092;28;20477;-54
2021/06/05 11:25:15;;;;;;;0.50;0.30;;;;;;;25.96;79.28;100566.97;4960170;28;20477;-53
2021/06/05 11:27:41;;;;;;;0.50;0.50;;;;;;;25.95;81.44;100570.69;4974300;28;20454;-54
2021/06/05 11:30:28;;;;;;;0.50;0.40;;;;;;;25.77;81.61;100556.84;4973707;28;20460;-54
2021/06/05 11:33:22;;;;;;;0.50;0.30;;;;;;;25.73;81.68;100557.22;4960797;28;20500;-53
2021/06/05 11:35:54;;;;;;;0.50;0.30;;;;;;;25.74;80.85;100561.69;4973376;28;20512;-53